Time;durP1;ratioP1;P1;durP2;ratioP2;P2;SDS_P1;SDS_P2;PMS_P1;PMS_P2;Temp;Humidity;BMP_temperature;BMP_pressure;BME280_temperature;BME280_humidity;BME280_pressure;Samples;Min_cycle;Max_cycle;Signal;HPM_P1;HPM_P2
2022/09/20 00:00:37;;;;;;;7.88;2.72;;;;;;;12.37;73.75;101154.72;4131715;28;20050;-67
2022/09/20 00:02:40;;;;;;;6.10;2.00;;;;;;;12.34;73.26;101159.00;4130439;28;20042;-67
2022/09/20 00:04:43;;;;;;;8.25;2.28;;;;;;;12.37;73.84;101153.84;4131193;28;20039;-67
2022/09/20 00:06:46;;;;;;;8.77;2.65;;;;;;;12.38;73.78;101148.66;4131644;28;20050;-67
2022/09/20 00:08:50;;;;;;;4.38;2.13;;;;;;;12.38;73.66;101155.59;4131561;28;20077;-67
2022/09/20 00:10:57;;;;;;;;;;;;;;;12.21;74.13;101156.16;4130731;28;20042;-67
2022/09/20 00:13:00;;;;;;;7.93;2.65;;;;;;;12.26;73.85;101155.38;4131597;28;19928;-67
2022/09/20 00:15:03;;;;;;;6.95;2.10;;;;;;;12.27;73.72;101152.78;4131167;28;20038;-67
2022/09/20 00:17:06;;;;;;;7.05;2.55;;;;;;;12.29;73.87;101155.44;4130303;28;20105;-67
2022/09/20 00:19:16;;;;;;;4.10;2.15;;;;;;;12.29;73.50;101158.03;4131369;28;20093;-67
2022/09/20 00:21:22;;;;;;;5.57;2.10;;;;;;;12.31;73.28;101164.16;4131558;28;20160;-67
2022/09/20 00:23:25;;;;;;;5.20;2.03;;;;;;;12.30;73.47;101165.03;4131221;28;20049;-67
2022/09/20 00:25:29;;;;;;;8.30;2.40;;;;;;;12.34;73.41;101159.00;4131404;28;20460;-67
2022/09/20 00:27:32;;;;;;;3.03;1.85;;;;;;;12.30;73.21;101162.41;4130453;28;20042;-67
2022/09/20 00:29:35;;;;;;;11.80;2.35;;;;;;;12.26;73.22;101161.47;4131417;28;20538;-67
2022/09/20 00:31:40;;;;;;;6.95;2.42;;;;;;;12.25;73.44;101170.16;4130266;28;20504;-67
2022/09/20 00:36:04;;;;;;;5.90;2.28;;;;;;;12.13;73.80;101164.69;4130173;28;20042;-67
2022/09/20 00:38:06;;;;;;;5.70;2.22;;;;;;;12.14;73.42;101164.72;4131397;28;20385;-68
2022/09/20 00:40:12;;;;;;;9.57;2.35;;;;;;;12.16;73.17;101168.25;4130082;28;20038;-68
2022/09/20 00:42:16;;;;;;;4.32;1.90;;;;;;;12.14;73.46;101172.53;4131355;28;20125;-68
2022/09/20 00:44:42;;;;;;;6.15;2.10;;;;;;;12.16;72.80;101167.34;4130969;28;20174;-68
2022/09/20 00:46:45;;;;;;;;;;;;;;;12.00;73.41;101168.78;4131680;28;20403;-69
2022/09/20 00:48:50;;;;;;;9.13;2.50;;;;;;;12.04;73.11;101168.88;4130181;28;19932;-68
2022/09/20 00:50:57;;;;;;;5.55;2.20;;;;;;;12.09;73.45;101168.09;4131326;28;20083;-67
2022/09/20 00:53:05;;;;;;;4.72;1.73;;;;;;;12.08;73.67;101163.75;4131286;28;20400;-67
2022/09/20 00:55:09;;;;;;;5.05;2.00;;;;;;;12.08;73.55;101171.56;4132089;28;20193;-68
2022/09/20 00:57:12;;;;;;;4.90;1.90;;;;;;;12.10;73.28;101164.63;4132967;28;20046;-68
2022/09/20 00:59:19;;;;;;;5.75;2.20;;;;;;;12.11;73.09;101167.28;4134123;28;20050;-68
2022/09/20 01:01:22;;;;;;;3.92;1.90;;;;;;;12.11;73.35;101163.78;4133011;28;20050;-67
2022/09/20 01:03:30;;;;;;;10.50;2.00;;;;;;;12.13;73.79;101160.34;4133795;28;20471;-68
2022/09/20 01:05:34;;;;;;;5.65;1.90;;;;;;;12.13;73.16;101160.34;4134202;28;20078;-67
2022/09/20 01:07:37;;;;;;;5.63;2.40;;;;;;;12.10;73.66;101162.03;4134092;28;20038;-68
2022/09/20 01:09:40;;;;;;;6.43;2.53;;;;;;;12.09;73.29;101163.75;4134082;28;20042;-68
2022/09/20 01:11:43;;;;;;;8.13;2.08;;;;;;;12.10;73.58;101160.28;4133989;28;20464;-68
2022/09/20 01:13:46;;;;;;;5.68;1.90;;;;;;;12.09;73.68;101160.25;4133703;28;20077;-68
2022/09/20 01:15:51;;;;;;;7.07;1.92;;;;;;;12.10;73.03;101164.63;4133994;28;20042;-68
2022/09/20 01:17:57;;;;;;;6.47;1.80;;;;;;;12.09;73.30;101173.28;4134048;28;20592;-68
2022/09/20 01:20:17;;;;;;;6.35;2.05;;;;;;;12.12;73.33;101168.13;4132700;28;20045;-68
2022/09/20 01:22:25;;;;;;;6.32;2.20;;;;;;;12.09;73.11;101173.28;4132603;28;20518;-68
2022/09/20 01:24:38;;;;;;;6.80;2.05;;;;;;;12.11;73.68;101169.88;4133671;28;20061;-68
2022/09/20 01:27:05;;;;;;;6.63;2.10;;;;;;;12.09;73.83;101168.97;4133929;28;20104;-68
2022/09/20 01:29:21;;;;;;;6.50;2.28;;;;;;;12.08;73.78;101167.22;4131908;28;20064;-68
2022/09/20 01:31:26;;;;;;;6.90;2.00;;;;;;;12.08;74.23;101172.44;4132475;28;20096;-68
2022/09/20 01:33:36;;;;;;;6.30;1.88;;;;;;;12.07;74.07;101168.06;4133325;28;20578;-68
2022/09/20 01:35:41;;;;;;;4.97;2.05;;;;;;;12.08;74.51;101168.94;4132460;28;20054;-68
2022/09/20 01:37:59;;;;;;;7.65;1.80;;;;;;;12.08;74.49;101162.00;4133820;28;20049;-68
2022/09/20 01:40:09;;;;;;;8.90;2.15;;;;;;;12.12;74.45;101169.03;4133607;28;20034;-68
2022/09/20 01:42:14;;;;;;;6.65;2.38;;;;;;;12.14;74.76;101162.09;4116259;28;20078;-68
2022/09/20 01:44:24;;;;;;;5.15;1.88;;;;;;;12.17;74.27;101162.16;4133349;28;20069;-68
2022/09/20 01:46:31;;;;;;;2.35;1.60;;;;;;;12.18;74.28;101158.72;4133697;28;20108;-68
2022/09/20 01:48:37;;;;;;;3.38;1.73;;;;;;;12.17;74.22;101167.38;4133462;28;20077;-68
2022/09/20 01:51:02;;;;;;;4.90;2.50;;;;;;;12.19;73.91;101165.69;4133479;28;20109;-68
2022/09/20 01:53:32;;;;;;;7.70;1.98;;;;;;;12.20;73.98;101157.00;4133489;28;20077;-68
2022/09/20 01:56:17;;;;;;;6.65;2.35;;;;;;;12.22;73.53;101159.63;4132188;28;20093;-68
2022/09/20 01:58:59;;;;;;;4.75;2.00;;;;;;;12.20;73.78;101157.00;4125097;28;20100;-68
2022/09/20 02:01:55;;;;;;;8.38;2.63;;;;;;;12.20;73.50;101151.78;4131948;28;20038;-68
2022/09/20 02:04:35;;;;;;;8.18;2.05;;;;;;;12.23;73.78;101153.59;4083068;29;20764;-68
2022/09/20 02:06:49;;;;;;;3.92;1.60;;;;;;;12.27;73.46;101150.19;4132505;28;20038;-67
2022/09/20 02:09:33;;;;;;;12.80;2.30;;;;;;;12.28;73.50;101156.28;4133248;28;20038;-67
2022/09/20 02:11:51;;;;;;;5.30;1.70;;;;;;;12.30;74.17;101157.19;4122118;28;20069;-67
2022/09/20 02:14:30;;;;;;;7.55;2.17;;;;;;;12.31;73.74;101153.72;4132796;28;20038;-68
2022/09/20 02:16:48;;;;;;;7.30;2.00;;;;;;;12.29;73.58;101155.44;4131056;28;20121;-68
2022/09/20 02:19:10;;;;;;;5.70;2.00;;;;;;;12.30;73.93;101158.06;4133016;28;20042;-68
2022/09/20 02:21:29;;;;;;;4.47;1.70;;;;;;;12.30;73.90;101160.66;4132944;28;20045;-68
2022/09/20 02:23:41;;;;;;;5.18;1.52;;;;;;;12.29;74.46;101161.50;4131430;28;20054;-69
2022/09/20 02:25:58;;;;;;;7.50;2.20;;;;;;;12.31;74.14;101159.84;4133003;28;20038;-68
2022/09/20 02:28:13;;;;;;;4.60;2.08;;;;;;;12.33;73.58;101157.25;4131593;28;20145;-68
2022/09/20 02:30:29;;;;;;;5.15;1.67;;;;;;;12.33;73.25;101159.84;4132845;28;20053;-67
2022/09/20 02:32:50;;;;;;;4.32;2.03;;;;;;;12.35;72.75;101160.75;4131662;28;20081;-67
2022/09/20 02:35:25;;;;;;;6.53;2.10;;;;;;;12.31;72.57;101164.16;4131165;28;20046;-67
2022/09/20 02:37:45;;;;;;;7.30;2.00;;;;;;;12.25;72.18;101159.72;4132797;28;20038;-67
2022/09/20 02:40:04;;;;;;;4.93;1.80;;;;;;;12.30;72.03;101162.41;4131544;28;20043;-67
2022/09/20 02:42:13;;;;;;;6.25;2.35;;;;;;;12.33;71.60;101152.91;4132653;28;20050;-68
2022/09/20 02:44:24;;;;;;;4.38;1.80;;;;;;;12.33;71.51;101162.47;4131186;28;20066;-68
2022/09/20 02:46:32;;;;;;;4.40;2.08;;;;;;;12.37;71.18;101165.16;4132631;28;20046;-68
2022/09/20 02:48:45;;;;;;;2.47;1.58;;;;;;;12.37;71.18;101161.69;4131345;28;20046;-68
2022/09/20 02:50:59;;;;;;;7.95;2.20;;;;;;;12.37;70.63;101164.28;4132456;28;20035;-68
2022/09/20 02:53:12;;;;;;;7.13;2.25;;;;;;;12.37;70.48;101165.16;4132469;28;20042;-67
2022/09/20 02:55:18;;;;;;;8.02;2.10;;;;;;;12.36;70.65;101170.34;4131039;28;20049;-68
2022/09/20 02:57:28;;;;;;;10.18;2.03;;;;;;;12.37;70.66;101170.38;4132442;28;20038;-68
2022/09/20 02:59:40;;;;;;;11.70;2.47;;;;;;;12.40;69.94;101174.75;4132436;28;20042;-68
2022/09/20 03:01:50;;;;;;;5.22;1.85;;;;;;;12.40;69.57;101175.63;4131110;28;20089;-68
2022/09/20 03:04:07;;;;;;;9.85;2.63;;;;;;;12.52;69.40;101168.88;4114760;28;20051;-68
2022/09/20 03:06:20;;;;;;;7.60;2.15;;;;;;;12.44;68.75;101175.69;4131129;28;20046;-68
2022/09/20 03:08:34;;;;;;;6.65;1.60;;;;;;;12.43;68.72;101184.38;4132296;28;20038;-68
2022/09/20 03:10:47;;;;;;;5.43;1.90;;;;;;;12.41;68.82;101184.31;4132364;28;20154;-68
2022/09/20 03:13:04;;;;;;;7.03;1.90;;;;;;;12.53;67.68;101181.09;4131004;28;20497;-68
2022/09/20 03:15:19;;;;;;;8.93;2.05;;;;;;;12.38;68.08;101181.66;4132011;28;20084;-68
2022/09/20 03:17:31;;;;;;;7.20;1.80;;;;;;;12.34;68.53;101180.75;4132205;28;20157;-68
2022/09/20 03:19:48;;;;;;;8.13;1.63;;;;;;;12.32;68.49;101181.56;4132153;28;20112;-68
2022/09/20 03:21:57;;;;;;;5.57;1.45;;;;;;;12.32;68.79;101187.63;4130943;28;20043;-68
2022/09/20 03:24:08;;;;;;;8.20;2.58;;;;;;;12.26;69.55;101190.13;4130646;28;20038;-68
2022/09/20 03:26:21;;;;;;;8.27;2.50;;;;;;;12.28;69.25;101192.78;4132009;28;20046;-67
2022/09/20 03:28:37;;;;;;;6.15;1.85;;;;;;;12.38;68.32;101184.28;4131999;28;20042;-67
2022/09/20 03:30:53;;;;;;;10.15;2.15;;;;;;;12.32;69.39;101189.38;4129915;28;20571;-68
2022/09/20 03:33:07;;;;;;;8.05;1.75;;;;;;;12.27;69.36;101191.91;4131816;28;20481;-67
2022/09/20 03:35:26;;;;;;;7.43;1.70;;;;;;;12.30;69.43;101191.97;4131807;28;20498;-67
2022/09/20 03:37:50;;;;;;;5.63;1.80;;;;;;;12.30;69.89;101194.56;4130710;28;20034;-66
2022/09/20 03:40:19;;;;;;;8.43;2.20;;;;;;;12.28;69.55;101196.28;4110358;28;20090;-67
2022/09/20 03:42:25;;;;;;;4.80;1.75;;;;;;;12.22;70.10;101190.91;4114387;28;20093;-67
2022/09/20 03:45:05;;;;;;;6.70;1.35;;;;;;;12.16;69.88;101186.50;4121688;28;20043;-67
2022/09/20 03:47:22;;;;;;;7.07;1.77;;;;;;;12.08;69.54;101185.47;4148826;28;20042;-67
2022/09/20 03:49:44;;;;;;;5.20;1.52;;;;;;;12.10;69.80;101188.09;4131805;28;20089;-67
2022/09/20 03:51:58;;;;;;;3.42;1.35;;;;;;;12.10;70.04;101185.47;4123041;28;20092;-68
2022/09/20 03:54:33;;;;;;;4.85;1.45;;;;;;;12.05;70.28;101188.00;4129772;28;20042;-68
2022/09/20 03:57:06;;;;;;;7.18;1.85;;;;;;;11.99;69.92;101190.50;4131662;28;20043;-67
2022/09/20 03:59:46;;;;;;;3.78;1.50;;;;;;;11.95;70.42;101191.28;4129828;28;20046;-68
2022/09/20 04:02:05;;;;;;;5.07;1.35;;;;;;;11.93;69.89;101191.25;4109626;28;20413;-68
2022/09/20 04:04:19;;;;;;;4.15;1.80;;;;;;;11.91;70.53;101197.22;4131140;28;20121;-68
2022/09/20 04:06:47;;;;;;;4.85;1.75;;;;;;;11.79;70.53;101200.47;4131506;28;20065;-68
2022/09/20 04:09:19;;;;;;;5.55;1.73;;;;;;;11.75;70.62;101196.91;4131040;28;20034;-67
2022/09/20 04:11:29;;;;;;;4.13;1.55;;;;;;;11.72;71.01;101193.38;4114265;28;20046;-68
2022/09/20 04:13:36;;;;;;;6.28;2.25;;;;;;;11.71;71.37;101195.09;4129973;28;20050;-68
2022/09/20 04:15:46;;;;;;;5.35;1.40;;;;;;;11.71;71.96;101192.50;4129807;28;20042;-67
2022/09/20 04:17:56;;;;;;;3.83;1.60;;;;;;;11.67;71.58;101190.66;4122855;28;20038;-67
2022/09/20 04:20:05;;;;;;;5.72;1.75;;;;;;;11.61;70.72;101195.72;4129869;28;20050;-69
2022/09/20 04:22:08;;;;;;;4.50;1.77;;;;;;;11.56;70.62;101189.53;4131459;28;20477;-67
2022/09/20 04:24:21;;;;;;;7.63;2.05;;;;;;;11.45;70.75;101186.72;4129627;28;20053;-68
2022/09/20 04:26:28;;;;;;;8.38;2.13;;;;;;;11.42;70.67;101195.34;4131557;28;20555;-67
2022/09/20 04:28:39;;;;;;;9.50;2.38;;;;;;;11.40;71.05;101186.59;4131501;28;20511;-68
2022/09/20 04:30:43;;;;;;;6.68;2.00;;;;;;;11.36;71.26;101187.38;4133136;28;20038;-67
2022/09/20 04:32:51;;;;;;;5.22;2.00;;;;;;;11.40;70.97;101189.19;4134026;28;20109;-68
2022/09/20 04:37:28;;;;;;;7.68;2.08;;;;;;;11.51;70.42;101197.25;4133350;28;20057;-67
2022/09/20 04:39:42;;;;;;;8.38;2.22;;;;;;;11.51;70.63;101197.25;4134574;28;20034;-70
2022/09/20 04:42:29;;;;;;;5.85;2.10;;;;;;;11.47;70.81;101204.09;4117114;28;20094;-68
2022/09/20 04:45:06;;;;;;;12.55;2.38;;;;;;;11.42;71.07;101210.97;4132945;28;20377;-67
2022/09/20 04:47:32;;;;;;;4.97;1.70;;;;;;;11.37;71.46;101217.75;4133204;28;20101;-67
2022/09/20 04:50:33;;;;;;;5.97;1.70;;;;;;;11.37;71.51;101219.50;4134449;28;20034;-68
2022/09/20 04:53:14;;;;;;;3.45;1.60;;;;;;;11.33;71.82;101221.13;4119480;28;20055;-69
2022/09/20 04:55:48;;;;;;;6.38;2.10;;;;;;;11.24;71.72;101223.53;4132973;28;20112;-67
2022/09/20 04:58:41;;;;;;;5.20;1.90;;;;;;;11.14;71.93;101214.63;4134316;28;20400;-68
2022/09/20 05:01:01;;;;;;;7.45;2.60;;;;;;;11.08;71.39;101228.38;4133152;28;20081;-68
2022/09/20 05:03:36;;;;;;;5.55;1.95;;;;;;;11.08;72.17;101227.47;4134055;28;20046;-68
2022/09/20 05:06:04;;;;;;;3.80;1.85;;;;;;;11.00;72.60;101228.19;4131123;28;20120;-68
2022/09/20 05:08:39;;;;;;;5.05;1.52;;;;;;;11.00;72.47;101233.38;4132893;28;20042;-67
2022/09/20 05:11:13;;;;;;;4.57;1.75;;;;;;;10.99;72.73;101228.13;4132952;28;20045;-67
2022/09/20 05:13:30;;;;;;;9.32;2.22;;;;;;;10.95;72.18;101234.09;4132569;28;20074;-68
2022/09/20 05:15:42;;;;;;;6.20;2.13;;;;;;;10.93;72.82;101238.41;4134098;28;20125;-67
2022/09/20 05:18:09;;;;;;;10.15;2.58;;;;;;;10.97;72.75;101238.50;4133876;28;20105;-67
2022/09/20 05:20:36;;;;;;;6.47;1.75;;;;;;;11.02;72.23;101246.44;4134108;28;20602;-68
2022/09/20 05:22:55;;;;;;;8.10;2.42;;;;;;;10.98;72.57;101252.38;4129838;28;20496;-67
2022/09/20 05:25:08;;;;;;;5.50;2.33;;;;;;;10.98;72.91;101260.19;4116220;28;20043;-67
2022/09/20 05:27:29;;;;;;;8.23;2.05;;;;;;;11.02;72.99;101253.34;4132793;28;20042;-67
2022/09/20 05:29:41;;;;;;;7.38;2.03;;;;;;;11.06;72.53;101248.25;4131643;28;20042;-67
2022/09/20 05:31:52;;;;;;;9.27;2.08;;;;;;;11.10;72.74;101247.50;4147978;28;20037;-67
2022/09/20 05:34:04;;;;;;;10.80;2.50;;;;;;;11.14;72.82;101251.94;4133425;28;20046;-67
2022/09/20 05:36:15;;;;;;;4.00;1.80;;;;;;;11.17;72.45;101252.03;4133770;28;20038;-67
2022/09/20 05:38:28;;;;;;;9.77;2.38;;;;;;;11.18;73.57;101252.88;4132340;28;20046;-68
2022/09/20 05:40:48;;;;;;;6.65;2.05;;;;;;;11.14;73.75;101257.16;4133659;28;20042;-67
2022/09/20 05:43:00;;;;;;;7.45;2.20;;;;;;;11.15;74.09;101253.69;4132583;28;20085;-67
2022/09/20 05:45:16;;;;;;;13.35;1.90;;;;;;;11.18;73.49;101245.09;4132179;28;20226;-67
2022/09/20 05:47:29;;;;;;;6.70;1.80;;;;;;;11.17;73.34;101254.63;4133505;28;20050;-67
2022/09/20 05:49:43;;;;;;;8.77;2.63;;;;;;;11.15;73.74;101258.88;4133546;28;20049;-67
2022/09/20 05:52:05;;;;;;;10.00;2.20;;;;;;;11.14;74.17;101258.84;4132303;28;20582;-67
2022/09/20 05:54:25;;;;;;;9.50;2.25;;;;;;;11.18;73.86;101256.41;4133059;28;20101;-67
2022/09/20 05:56:41;;;;;;;7.10;2.28;;;;;;;11.23;73.88;101259.09;4133387;28;20047;-67
2022/09/20 05:59:01;;;;;;;5.43;1.88;;;;;;;11.27;73.54;101257.44;4132182;28;20042;-67
2022/09/20 06:01:09;;;;;;;11.20;2.28;;;;;;;11.33;73.73;101262.78;4133385;28;20081;-67
2022/09/20 06:03:20;;;;;;;5.30;2.65;;;;;;;11.35;74.17;101261.97;4131774;28;20035;-67
2022/09/20 06:05:36;;;;;;;6.75;2.63;;;;;;;11.43;73.86;101263.91;4132064;28;20042;-67
2022/09/20 06:08:19;;;;;;;7.38;1.98;;;;;;;11.46;72.72;101254.44;4132170;28;20046;-67
2022/09/20 06:10:42;;;;;;;3.40;1.63;;;;;;;11.44;73.34;101263.94;4133403;28;20047;-67
2022/09/20 06:12:55;;;;;;;5.90;2.08;;;;;;;11.53;74.06;101260.66;4133228;28;20407;-67
2022/09/20 06:15:10;;;;;;;9.40;2.10;;;;;;;11.62;74.17;101267.81;4132898;28;20046;-67
2022/09/20 06:17:27;;;;;;;9.80;2.28;;;;;;;11.69;73.58;101262.75;4133137;28;20066;-67
2022/09/20 06:19:39;;;;;;;10.88;2.85;;;;;;;11.75;73.68;101256.81;4131897;28;20072;-67
2022/09/20 06:21:50;;;;;;;8.63;3.25;;;;;;;11.83;73.00;101267.44;4131879;28;20524;-68
2022/09/20 06:23:58;;;;;;;10.60;2.53;;;;;;;11.89;73.11;101270.16;4132383;28;20038;-68
2022/09/20 06:26:06;;;;;;;6.72;2.25;;;;;;;11.90;73.01;101271.03;4132958;28;20488;-68
2022/09/20 06:28:16;;;;;;;10.27;3.00;;;;;;;11.96;72.72;101268.56;4132982;28;20070;-67
2022/09/20 06:30:24;;;;;;;6.68;2.50;;;;;;;11.98;72.62;101269.50;4132872;28;20104;-67
2022/09/20 06:32:27;;;;;;;10.93;2.75;;;;;;;12.03;71.81;101270.47;4131661;28;20074;-67
2022/09/20 06:34:30;;;;;;;6.55;2.22;;;;;;;12.10;71.45;101269.75;4132414;28;20042;-67
2022/09/20 06:41:29;;;;;;;12.75;4.03;;;;;;;12.37;69.69;101273.78;4132731;28;20487;-67
2022/09/20 06:43:32;;;;;;;10.63;3.30;;;;;;;12.28;70.23;101282.31;4132344;28;20038;-67
2022/09/20 06:45:36;;;;;;;14.82;4.28;;;;;;;12.32;70.18;101276.28;4115205;28;20047;-67
2022/09/20 06:47:40;;;;;;;9.23;3.10;;;;;;;12.27;69.81;101282.28;4132590;28;20038;-67
2022/09/20 06:49:45;;;;;;;8.57;3.83;;;;;;;12.26;70.29;101288.34;4131265;28;20049;-67
2022/09/20 06:51:49;;;;;;;15.80;4.70;;;;;;;12.26;70.24;101290.94;4132594;28;20046;-67
2022/09/20 06:53:56;;;;;;;16.98;7.22;;;;;;;12.36;69.64;101282.47;4131845;28;20038;-67
2022/09/20 06:56:00;;;;;;;10.30;4.18;;;;;;;12.33;69.68;101288.47;4131072;28;20038;-67
2022/09/20 06:58:03;;;;;;;14.18;4.75;;;;;;;12.43;69.60;101286.94;4132445;28;20090;-67
2022/09/20 07:00:10;;;;;;;13.30;4.40;;;;;;;12.52;68.56;101294.06;4131169;28;20046;-67
2022/09/20 07:02:14;;;;;;;11.40;4.57;;;;;;;12.43;68.95;101281.72;4132448;28;20045;-67
2022/09/20 07:04:17;;;;;;;11.85;5.20;;;;;;;12.45;69.21;101286.97;4131887;28;20097;-67
2022/09/20 07:06:20;;;;;;;11.85;5.82;;;;;;;12.53;68.83;101288.88;4132155;28;20050;-67
2022/09/20 07:08:22;;;;;;;16.52;7.78;;;;;;;12.62;69.19;101287.31;4132528;28;20035;-67
2022/09/20 07:10:27;;;;;;;13.35;5.80;;;;;;;12.71;68.81;101284.88;4132258;28;20046;-67
2022/09/20 07:12:32;;;;;;;18.55;5.65;;;;;;;12.62;68.54;101289.94;4130914;28;20108;-67
2022/09/20 07:14:35;;;;;;;11.05;4.93;;;;;;;12.44;69.47;101290.44;4130650;28;20085;-67
2022/09/20 07:16:38;;;;;;;16.52;5.68;;;;;;;12.38;70.63;101296.41;4130909;28;20061;-67
2022/09/20 07:18:43;;;;;;;9.15;3.47;;;;;;;12.34;71.00;101294.59;4132168;28;20046;-67
2022/09/20 07:20:46;;;;;;;;;;;;;;;12.22;71.44;101297.81;4132485;28;20492;-67
2022/09/20 07:22:50;;;;;;;12.65;4.05;;;;;;;12.30;71.29;101292.78;4131984;28;19961;-67
2022/09/20 07:24:53;;;;;;;14.50;5.00;;;;;;;12.38;71.19;101306.81;4130661;28;20073;-67
2022/09/20 07:26:57;;;;;;;12.60;4.80;;;;;;;12.61;69.94;101298.59;4132091;28;20093;-67
2022/09/20 07:29:01;;;;;;;17.45;5.05;;;;;;;12.68;69.47;101295.25;4132127;28;20046;-67
2022/09/20 07:31:04;;;;;;;11.27;4.70;;;;;;;12.68;69.38;101303.09;4130533;28;20112;-67
2022/09/20 07:33:08;;;;;;;9.02;3.90;;;;;;;12.71;69.36;101305.75;4131644;28;20100;-67
2022/09/20 07:35:13;;;;;;;10.95;4.13;;;;;;;12.74;69.75;101295.38;4114486;28;20054;-67
2022/09/20 07:37:17;;;;;;;14.05;4.57;;;;;;;12.93;68.24;101302.66;4131876;28;20039;-67
2022/09/20 07:39:20;;;;;;;19.40;5.28;;;;;;;12.90;68.17;101305.22;4132084;28;20393;-67
2022/09/20 07:41:22;;;;;;;11.18;4.75;;;;;;;12.81;68.12;101301.59;4131869;28;20559;-67
2022/09/20 07:43:25;;;;;;;9.82;4.45;;;;;;;12.82;68.20;101296.41;4131478;28;20062;-67
2022/09/20 07:45:29;;;;;;;9.05;3.45;;;;;;;12.78;68.37;101301.53;4130716;28;20042;-67
2022/09/20 07:47:34;;;;;;;12.20;3.85;;;;;;;12.69;68.69;101312.69;4131873;28;20042;-67
2022/09/20 07:49:37;;;;;;;13.80;4.20;;;;;;;12.78;68.91;101297.19;4131785;28;20088;-67
2022/09/20 07:51:41;;;;;;;8.13;3.45;;;;;;;12.84;69.14;101307.72;4130550;28;20052;-67
2022/09/20 07:53:44;;;;;;;10.90;4.28;;;;;;;12.86;69.19;101300.78;4131266;28;20051;-67
2022/09/20 07:55:57;;;;;;;10.13;3.75;;;;;;;13.03;69.20;101305.47;4131709;28;20108;-67
2022/09/20 07:57:59;;;;;;;13.27;4.28;;;;;;;13.08;68.60;101306.41;4131683;28;20093;-67
2022/09/20 08:00:04;;;;;;;7.63;3.55;;;;;;;13.10;68.23;101313.41;4131742;28;20050;-67
2022/09/20 08:02:15;;;;;;;15.40;4.35;;;;;;;13.17;67.80;101318.75;4130392;28;20145;-67
2022/09/20 08:04:18;;;;;;;8.45;3.80;;;;;;;13.23;67.94;101316.25;4129519;28;20097;-67
2022/09/20 08:06:21;;;;;;;12.43;4.72;;;;;;;13.41;67.04;101320.94;4131585;28;20050;-67
2022/09/20 08:08:25;;;;;;;13.48;5.05;;;;;;;13.65;65.75;101324.78;4131567;28;20069;-67
2022/09/20 08:10:28;;;;;;;13.45;5.07;;;;;;;13.70;65.02;101323.13;4131603;28;20034;-67
2022/09/20 08:12:31;;;;;;;12.93;5.32;;;;;;;13.64;65.23;101323.00;4130478;28;20089;-67
2022/09/20 08:14:54;;;;;;;15.85;4.70;;;;;;;13.60;65.74;101320.34;4129915;28;20034;-67
2022/09/20 08:16:58;;;;;;;9.63;3.67;;;;;;;13.54;66.18;101320.28;4130372;28;20096;-67
2022/09/20 08:19:02;;;;;;;12.68;4.50;;;;;;;13.61;65.99;101318.66;4131423;28;20492;-67
2022/09/20 08:21:06;;;;;;;13.80;4.80;;;;;;;13.65;66.22;101317.81;4130331;28;20074;-67
2022/09/20 08:23:09;;;;;;;10.50;4.40;;;;;;;13.63;65.93;101324.75;4130237;28;20288;-67
2022/09/20 08:25:27;;;;;;;12.35;4.90;;;;;;;13.71;65.38;101319.66;4131508;28;20076;-67
2022/09/20 08:27:30;;;;;;;14.45;3.88;;;;;;;13.61;65.61;101318.66;4131369;28;20050;-67
2022/09/20 08:29:33;;;;;;;14.20;4.85;;;;;;;13.71;65.67;101333.59;4130576;28;20047;-67
2022/09/20 08:31:39;;;;;;;17.20;5.65;;;;;;;13.83;64.69;101332.91;4130382;28;20547;-67
2022/09/20 08:33:42;;;;;;;15.07;5.38;;;;;;;13.74;65.20;101336.25;4113025;28;20070;-67
2022/09/20 08:35:48;;;;;;;13.38;3.90;;;;;;;13.70;64.64;101337.06;4131339;28;20097;-67
2022/09/20 08:37:54;;;;;;;6.57;3.47;;;;;;;13.75;63.81;101337.13;4131324;28;20054;-67
2022/09/20 08:39:57;;;;;;;10.10;2.50;;;;;;;13.72;64.40;101344.94;4113887;28;20054;-67
2022/09/20 08:42:10;;;;;;;13.85;3.10;;;;;;;13.77;64.26;101336.31;4130466;28;20466;-68
2022/09/20 08:44:18;;;;;;;7.82;2.67;;;;;;;13.82;63.68;101330.28;4130904;28;20034;-67
2022/09/20 08:46:27;;;;;;;11.57;2.45;;;;;;;13.90;62.67;101336.47;4131343;28;20077;-67
2022/09/20 08:48:33;;;;;;;10.27;2.35;;;;;;;13.86;63.25;101334.69;4131334;28;20046;-67
2022/09/20 08:50:36;;;;;;;9.55;2.63;;;;;;;13.78;63.82;101329.34;4131318;28;20118;-67
2022/09/20 08:52:41;;;;;;;6.97;2.03;;;;;;;13.81;63.95;101337.22;4131193;28;20042;-67
2022/09/20 08:54:44;;;;;;;7.00;2.50;;;;;;;13.79;64.52;101329.34;4130797;28;20516;-67
2022/09/20 08:56:48;;;;;;;9.10;3.17;;;;;;;13.82;64.28;101328.53;4131306;28;20073;-67
2022/09/20 08:58:55;;;;;;;7.43;2.33;;;;;;;13.77;63.90;101331.09;4131216;28;20500;-67
2022/09/20 09:00:58;;;;;;;9.52;2.47;;;;;;;13.86;64.16;101329.47;4131374;28;20485;-67
2022/09/20 09:03:06;;;;;;;14.33;2.33;;;;;;;13.95;63.48;101330.47;4129963;28;20093;-67
2022/09/20 09:05:27;;;;;;;7.63;1.92;;;;;;;14.01;63.45;101334.03;4131259;28;20376;-67
2022/09/20 09:07:30;;;;;;;5.45;1.80;;;;;;;14.22;62.33;101333.44;4131124;28;20038;-67
2022/09/20 09:09:36;;;;;;;7.00;2.13;;;;;;;14.39;61.47;101331.06;4131165;28;20052;-67
2022/09/20 09:11:41;;;;;;;11.95;2.60;;;;;;;14.52;61.64;101324.25;4113779;28;20298;-67
2022/09/20 09:13:56;;;;;;;9.63;2.03;;;;;;;14.53;61.12;101326.88;4130758;28;20394;-67
2022/09/20 09:16:02;;;;;;;7.88;1.73;;;;;;;14.47;61.40;101321.53;4130586;28;20460;-67
2022/09/20 09:18:09;;;;;;;9.45;2.00;;;;;;;14.60;61.28;101326.09;4134082;28;20046;-67
2022/09/20 09:20:20;;;;;;;9.00;2.55;;;;;;;14.77;59.68;101317.56;4134011;28;20045;-67
2022/09/20 09:22:28;;;;;;;10.70;2.88;;;;;;;14.78;59.49;101311.47;4133995;28;20046;-67
2022/09/20 09:24:31;;;;;;;8.63;2.28;;;;;;;14.83;59.84;101312.38;4133477;28;20042;-67
2022/09/20 09:26:36;;;;;;;7.35;2.13;;;;;;;14.96;59.63;101313.41;4133889;28;20049;-68
2022/09/20 09:28:39;;;;;;;10.20;2.40;;;;;;;15.01;58.75;101319.56;4132765;28;20050;-67
2022/09/20 09:30:45;;;;;;;10.32;2.38;;;;;;;15.01;57.86;101315.19;4132538;28;20061;-67
2022/09/20 09:32:48;;;;;;;10.68;2.58;;;;;;;14.79;58.88;101315.81;4133784;28;20042;-67
2022/09/20 09:34:51;;;;;;;15.25;2.22;;;;;;;14.65;59.52;101319.19;4133452;28;20408;-67
2022/09/20 09:36:55;;;;;;;7.63;1.90;;;;;;;14.61;60.01;101319.09;4133711;28;20042;-67
2022/09/20 09:39:15;;;;;;;6.82;2.08;;;;;;;14.58;60.24;101317.31;4133616;28;20389;-67
2022/09/20 09:41:24;;;;;;;9.50;2.90;;;;;;;14.75;58.58;101314.06;4132346;28;20046;-67
2022/09/20 09:43:30;;;;;;;9.45;2.42;;;;;;;14.56;59.07;101308.59;4132048;28;20570;-67
2022/09/20 09:45:37;;;;;;;5.20;1.60;;;;;;;14.43;60.31;101315.41;4133703;28;20041;-67
2022/09/20 09:47:42;;;;;;;7.85;1.77;;;;;;;14.43;59.91;101311.94;4133571;28;20520;-67
2022/09/20 09:49:56;;;;;;;5.85;1.92;;;;;;;14.43;60.69;101317.16;4132307;28;20034;-67
2022/09/20 09:52:13;;;;;;;8.93;2.00;;;;;;;14.66;58.75;101315.72;4132283;28;20404;-68
2022/09/20 09:54:18;;;;;;;10.38;1.83;;;;;;;14.47;59.96;101314.59;4131864;28;20644;-68
2022/09/20 09:56:42;;;;;;;5.88;2.13;;;;;;;14.41;60.94;101306.69;4132255;28;20038;-68
2022/09/20 09:59:00;;;;;;;10.82;2.17;;;;;;;14.46;60.89;101317.19;4133443;28;20046;-68
2022/09/20 10:01:11;;;;;;;8.98;2.20;;;;;;;14.45;60.35;101300.59;4132039;28;20046;-68
2022/09/20 10:03:38;;;;;;;7.38;2.20;;;;;;;14.42;59.64;101312.78;4133145;28;20054;-68
2022/09/20 10:05:53;;;;;;;7.95;2.17;;;;;;;14.32;60.18;101311.78;4133275;28;20073;-67
2022/09/20 10:08:05;;;;;;;12.02;2.15;;;;;;;14.29;61.01;101304.78;4131995;28;20042;-67
2022/09/20 10:10:20;;;;;;;7.65;2.28;;;;;;;14.41;61.20;101298.81;4132003;28;20058;-68
2022/09/20 10:12:46;;;;;;;9.48;2.10;;;;;;;14.89;60.78;101298.47;4133307;28;20051;-67
2022/09/20 10:15:00;;;;;;;;;;;;;;;15.14;58.88;101296.97;4132096;28;20049;-67
2022/09/20 10:17:20;;;;;;;7.03;1.90;;;;;;;15.46;58.27;101292.00;4148069;28;19925;-67
2022/09/20 10:19:42;;;;;;;8.82;2.03;;;;;;;15.79;56.39;101293.13;4115683;28;20046;-68
2022/09/20 10:21:55;;;;;;;7.47;2.20;;;;;;;16.05;51.20;101284.53;4133199;28;20045;-68
2022/09/20 10:24:08;;;;;;;10.63;2.70;;;;;;;16.20;50.58;101291.59;4131353;28;20085;-68